sensor_id;sensor_type;location;lat;lon;timestamp;temperature;humidity
38606;DHT22;24365;48.446;8.850;2023-05-13T00:03:19;12.20;70.50
38606;DHT22;24365;48.446;8.850;2023-05-13T00:08:20;12.30;70.60
38606;DHT22;24365;48.446;8.850;2023-05-13T00:13:21;12.20;71.20
38606;DHT22;24365;48.446;8.850;2023-05-13T00:18:22;12.20;71.00
38606;DHT22;24365;48.446;8.850;2023-05-13T00:23:23;12.10;71.20
38606;DHT22;24365;48.446;8.850;2023-05-13T00:28:24;12.10;70.90
38606;DHT22;24365;48.446;8.850;2023-05-13T00:33:25;12.00;70.90
38606;DHT22;24365;48.446;8.850;2023-05-13T00:38:26;12.00;71.10
38606;DHT22;24365;48.446;8.850;2023-05-13T00:43:27;12.00;71.60
38606;DHT22;24365;48.446;8.850;2023-05-13T00:48:28;11.90;71.90
38606;DHT22;24365;48.446;8.850;2023-05-13T00:53:31;11.90;72.30
38606;DHT22;24365;48.446;8.850;2023-05-13T00:58:33;11.80;71.90
38606;DHT22;24365;48.446;8.850;2023-05-13T01:03:52;11.90;71.80
38606;DHT22;24365;48.446;8.850;2023-05-13T01:09:17;11.80;71.90
38606;DHT22;24365;48.446;8.850;2023-05-13T01:14:36;11.80;72.50
38606;DHT22;24365;48.446;8.850;2023-05-13T01:19:43;11.70;72.80
38606;DHT22;24365;48.446;8.850;2023-05-13T01:24:46;11.70;72.80
38606;DHT22;24365;48.446;8.850;2023-05-13T01:29:48;11.70;73.40
38606;DHT22;24365;48.446;8.850;2023-05-13T01:34:55;11.60;73.90
38606;DHT22;24365;48.446;8.850;2023-05-13T01:39:56;11.70;73.30
38606;DHT22;24365;48.446;8.850;2023-05-13T01:44:58;11.70;73.20
38606;DHT22;24365;48.446;8.850;2023-05-13T01:49:59;11.60;73.10
38606;DHT22;24365;48.446;8.850;2023-05-13T01:55:00;11.60;73.20
38606;DHT22;24365;48.446;8.850;2023-05-13T02:00:01;11.60;73.00
38606;DHT22;24365;48.446;8.850;2023-05-13T02:05:04;11.60;73.10
38606;DHT22;24365;48.446;8.850;2023-05-13T02:10:06;11.50;73.40
38606;DHT22;24365;48.446;8.850;2023-05-13T02:15:08;11.50;74.50
38606;DHT22;24365;48.446;8.850;2023-05-13T02:20:09;11.50;74.50
38606;DHT22;24365;48.446;8.850;2023-05-13T02:25:10;11.50;73.90
38606;DHT22;24365;48.446;8.850;2023-05-13T02:30:12;11.50;74.80
38606;DHT22;24365;48.446;8.850;2023-05-13T02:35:14;11.50;74.50
38606;DHT22;24365;48.446;8.850;2023-05-13T02:40:15;11.50;74.40
38606;DHT22;24365;48.446;8.850;2023-05-13T02:45:16;11.50;74.70
38606;DHT22;24365;48.446;8.850;2023-05-13T02:50:23;11.50;74.90
38606;DHT22;24365;48.446;8.850;2023-05-13T02:55:25;11.40;75.10
38606;DHT22;24365;48.446;8.850;2023-05-13T03:00:26;11.40;75.80
38606;DHT22;24365;48.446;8.850;2023-05-13T03:05:27;11.40;75.60
38606;DHT22;24365;48.446;8.850;2023-05-13T03:10:28;11.30;76.50
38606;DHT22;24365;48.446;8.850;2023-05-13T03:15:29;11.40;76.30
38606;DHT22;24365;48.446;8.850;2023-05-13T03:20:30;11.40;76.00
38606;DHT22;24365;48.446;8.850;2023-05-13T03:25:31;11.40;76.30
38606;DHT22;24365;48.446;8.850;2023-05-13T03:30:33;11.30;76.80
38606;DHT22;24365;48.446;8.850;2023-05-13T03:35:41;11.20;77.40
38606;DHT22;24365;48.446;8.850;2023-05-13T03:40:42;11.20;78.00
38606;DHT22;24365;48.446;8.850;2023-05-13T03:45:44;11.30;77.50
38606;DHT22;24365;48.446;8.850;2023-05-13T03:50:51;11.30;77.50
38606;DHT22;24365;48.446;8.850;2023-05-13T03:55:53;11.20;77.30
38606;DHT22;24365;48.446;8.850;2023-05-13T04:00:54;11.20;77.30
38606;DHT22;24365;48.446;8.850;2023-05-13T04:05:57;11.20;77.30
38606;DHT22;24365;48.446;8.850;2023-05-13T04:10:58;11.20;77.40
38606;DHT22;24365;48.446;8.850;2023-05-13T04:16:00;11.20;77.90
38606;DHT22;24365;48.446;8.850;2023-05-13T04:21:06;11.20;77.80
38606;DHT22;24365;48.446;8.850;2023-05-13T04:26:07;11.20;77.70
38606;DHT22;24365;48.446;8.850;2023-05-13T04:31:08;11.20;77.40
38606;DHT22;24365;48.446;8.850;2023-05-13T04:36:10;11.20;77.30
38606;DHT22;24365;48.446;8.850;2023-05-13T04:41:12;11.20;77.50
38606;DHT22;24365;48.446;8.850;2023-05-13T04:46:17;11.20;77.40
38606;DHT22;24365;48.446;8.850;2023-05-13T04:51:18;11.20;77.40
38606;DHT22;24365;48.446;8.850;2023-05-13T04:56:20;11.20;77.00
38606;DHT22;24365;48.446;8.850;2023-05-13T05:01:21;11.20;77.20
38606;DHT22;24365;48.446;8.850;2023-05-13T05:06:24;11.20;77.30
38606;DHT22;24365;48.446;8.850;2023-05-13T05:11:25;11.10;77.50
38606;DHT22;24365;48.446;8.850;2023-05-13T05:16:27;11.20;77.30
38606;DHT22;24365;48.446;8.850;2023-05-13T05:21:28;11.20;76.20
38606;DHT22;24365;48.446;8.850;2023-05-13T05:26:30;11.20;77.00
38606;DHT22;24365;48.446;8.850;2023-05-13T05:31:31;11.20;77.00
38606;DHT22;24365;48.446;8.850;2023-05-13T05:36:35;11.20;76.60
38606;DHT22;24365;48.446;8.850;2023-05-13T05:41:37;11.20;76.30
38606;DHT22;24365;48.446;8.850;2023-05-13T05:46:38;11.30;76.40
38606;DHT22;24365;48.446;8.850;2023-05-13T05:51:41;11.30;75.40
38606;DHT22;24365;48.446;8.850;2023-05-13T05:56:43;11.30;75.70
38606;DHT22;24365;48.446;8.850;2023-05-13T06:01:44;11.20;75.30
38606;DHT22;24365;48.446;8.850;2023-05-13T06:06:45;11.30;74.90
38606;DHT22;24365;48.446;8.850;2023-05-13T06:11:47;11.30;74.50
38606;DHT22;24365;48.446;8.850;2023-05-13T06:16:48;11.30;74.50
38606;DHT22;24365;48.446;8.850;2023-05-13T06:27:14;11.40;74.40
38606;DHT22;24365;48.446;8.850;2023-05-13T06:32:17;11.50;73.80
38606;DHT22;24365;48.446;8.850;2023-05-13T06:37:18;11.40;73.00
38606;DHT22;24365;48.446;8.850;2023-05-13T06:42:19;11.50;73.90
38606;DHT22;24365;48.446;8.850;2023-05-13T06:47:29;11.50;73.10
38606;DHT22;24365;48.446;8.850;2023-05-13T06:52:30;11.50;72.40
38606;DHT22;24365;48.446;8.850;2023-05-13T06:57:31;11.60;72.80
38606;DHT22;24365;48.446;8.850;2023-05-13T07:02:32;11.60;72.00
38606;DHT22;24365;48.446;8.850;2023-05-13T07:07:33;11.60;72.20
38606;DHT22;24365;48.446;8.850;2023-05-13T07:12:34;11.70;71.60
38606;DHT22;24365;48.446;8.850;2023-05-13T07:17:35;11.70;71.20
38606;DHT22;24365;48.446;8.850;2023-05-13T07:22:36;11.70;71.10
38606;DHT22;24365;48.446;8.850;2023-05-13T07:27:37;11.70;70.70
38606;DHT22;24365;48.446;8.850;2023-05-13T07:32:39;11.70;70.50
38606;DHT22;24365;48.446;8.850;2023-05-13T07:37:41;11.80;70.10
38606;DHT22;24365;48.446;8.850;2023-05-13T07:42:42;11.80;69.70
38606;DHT22;24365;48.446;8.850;2023-05-13T07:47:43;11.80;69.10
38606;DHT22;24365;48.446;8.850;2023-05-13T07:52:44;11.90;69.90
38606;DHT22;24365;48.446;8.850;2023-05-13T07:57:48;12.00;69.00
38606;DHT22;24365;48.446;8.850;2023-05-13T08:02:49;12.20;69.30
38606;DHT22;24365;48.446;8.850;2023-05-13T08:07:50;12.40;68.80
38606;DHT22;24365;48.446;8.850;2023-05-13T08:12:52;12.50;67.60
38606;DHT22;24365;48.446;8.850;2023-05-13T08:17:57;12.60;65.70
38606;DHT22;24365;48.446;8.850;2023-05-13T08:22:58;12.60;66.10
38606;DHT22;24365;48.446;8.850;2023-05-13T08:28:01;12.60;65.00
38606;DHT22;24365;48.446;8.850;2023-05-13T08:33:04;12.50;66.10
38606;DHT22;24365;48.446;8.850;2023-05-13T08:38:05;12.60;65.50
38606;DHT22;24365;48.446;8.850;2023-05-13T08:43:06;12.50;65.20
38606;DHT22;24365;48.446;8.850;2023-05-13T08:48:09;12.60;65.90
38606;DHT22;24365;48.446;8.850;2023-05-13T08:53:11;12.70;65.00
38606;DHT22;24365;48.446;8.850;2023-05-13T08:58:12;12.60;65.10
38606;DHT22;24365;48.446;8.850;2023-05-13T09:03:14;12.60;65.50
38606;DHT22;24365;48.446;8.850;2023-05-13T09:08:15;12.70;66.10
38606;DHT22;24365;48.446;8.850;2023-05-13T09:13:16;12.70;64.70
38606;DHT22;24365;48.446;8.850;2023-05-13T09:18:20;12.70;64.40
38606;DHT22;24365;48.446;8.850;2023-05-13T09:23:22;12.60;64.50
38606;DHT22;24365;48.446;8.850;2023-05-13T09:28:23;12.70;66.20
38606;DHT22;24365;48.446;8.850;2023-05-13T09:33:29;12.80;65.20
38606;DHT22;24365;48.446;8.850;2023-05-13T09:38:32;12.80;64.80
38606;DHT22;24365;48.446;8.850;2023-05-13T09:43:38;12.80;65.40
38606;DHT22;24365;48.446;8.850;2023-05-13T09:48:42;12.90;65.40
38606;DHT22;24365;48.446;8.850;2023-05-13T09:53:46;13.00;65.30
38606;DHT22;24365;48.446;8.850;2023-05-13T09:58:51;13.10;64.00
38606;DHT22;24365;48.446;8.850;2023-05-13T10:03:56;13.10;64.10
38606;DHT22;24365;48.446;8.850;2023-05-13T10:09:00;13.30;64.30
38606;DHT22;24365;48.446;8.850;2023-05-13T10:14:05;13.30;62.70
38606;DHT22;24365;48.446;8.850;2023-05-13T10:19:07;13.20;62.40
38606;DHT22;24365;48.446;8.850;2023-05-13T10:24:08;13.10;62.80
38606;DHT22;24365;48.446;8.850;2023-05-13T10:29:10;13.10;63.50
38606;DHT22;24365;48.446;8.850;2023-05-13T10:34:11;13.00;63.30
38606;DHT22;24365;48.446;8.850;2023-05-13T10:44:35;12.90;63.30
38606;DHT22;24365;48.446;8.850;2023-05-13T10:49:36;12.80;64.50
38606;DHT22;24365;48.446;8.850;2023-05-13T10:54:39;12.80;64.90
38606;DHT22;24365;48.446;8.850;2023-05-13T11:00:16;12.80;65.00
38606;DHT22;24365;48.446;8.850;2023-05-13T11:05:19;12.90;64.50
38606;DHT22;24365;48.446;8.850;2023-05-13T11:10:28;12.80;64.50
38606;DHT22;24365;48.446;8.850;2023-05-13T11:15:47;12.80;64.80
38606;DHT22;24365;48.446;8.850;2023-05-13T11:20:52;12.80;65.10
38606;DHT22;24365;48.446;8.850;2023-05-13T11:26:10;12.70;65.00
38606;DHT22;24365;48.446;8.850;2023-05-13T11:31:15;12.70;65.00
38606;DHT22;24365;48.446;8.850;2023-05-13T11:36:17;12.80;65.80
38606;DHT22;24365;48.446;8.850;2023-05-13T11:41:20;12.80;65.10
38606;DHT22;24365;48.446;8.850;2023-05-13T11:46:22;12.80;65.00
38606;DHT22;24365;48.446;8.850;2023-05-13T11:51:24;12.80;65.30
38606;DHT22;24365;48.446;8.850;2023-05-13T11:56:26;12.80;64.60
38606;DHT22;24365;48.446;8.850;2023-05-13T12:01:28;12.80;65.50
38606;DHT22;24365;48.446;8.850;2023-05-13T12:06:29;12.80;65.20
38606;DHT22;24365;48.446;8.850;2023-05-13T12:11:31;12.80;65.60
38606;DHT22;24365;48.446;8.850;2023-05-13T12:16:32;13.00;65.30
38606;DHT22;24365;48.446;8.850;2023-05-13T12:21:33;13.10;65.30
38606;DHT22;24365;48.446;8.850;2023-05-13T12:26:34;13.20;64.30
38606;DHT22;24365;48.446;8.850;2023-05-13T12:31:35;13.20;64.60
38606;DHT22;24365;48.446;8.850;2023-05-13T12:36:37;13.40;64.10
38606;DHT22;24365;48.446;8.850;2023-05-13T12:41:41;13.50;63.90
38606;DHT22;24365;48.446;8.850;2023-05-13T12:46:49;13.40;63.00
38606;DHT22;24365;48.446;8.850;2023-05-13T12:51:51;13.40;63.60
38606;DHT22;24365;48.446;8.850;2023-05-13T12:56:52;13.40;63.70
38606;DHT22;24365;48.446;8.850;2023-05-13T13:01:53;13.50;63.80
38606;DHT22;24365;48.446;8.850;2023-05-13T13:06:53;13.60;63.20
38606;DHT22;24365;48.446;8.850;2023-05-13T13:11:55;13.60;62.60
38606;DHT22;24365;48.446;8.850;2023-05-13T13:16:57;13.60;61.60
38606;DHT22;24365;48.446;8.850;2023-05-13T13:21:58;13.80;61.90
38606;DHT22;24365;48.446;8.850;2023-05-13T13:26:59;13.90;61.30
38606;DHT22;24365;48.446;8.850;2023-05-13T13:32:00;14.10;60.30
38606;DHT22;24365;48.446;8.850;2023-05-13T13:37:01;14.10;59.80
38606;DHT22;24365;48.446;8.850;2023-05-13T13:42:02;14.00;59.30
38606;DHT22;24365;48.446;8.850;2023-05-13T13:47:06;14.00;59.90
38606;DHT22;24365;48.446;8.850;2023-05-13T13:52:07;14.10;59.50
38606;DHT22;24365;48.446;8.850;2023-05-13T13:57:08;14.30;59.70
38606;DHT22;24365;48.446;8.850;2023-05-13T14:02:09;14.30;58.30
38606;DHT22;24365;48.446;8.850;2023-05-13T14:07:10;14.40;58.40
38606;DHT22;24365;48.446;8.850;2023-05-13T14:12:11;14.50;58.20
38606;DHT22;24365;48.446;8.850;2023-05-13T14:17:13;14.50;57.30
38606;DHT22;24365;48.446;8.850;2023-05-13T14:22:14;14.60;58.00
38606;DHT22;24365;48.446;8.850;2023-05-13T14:27:15;14.70;57.40
38606;DHT22;24365;48.446;8.850;2023-05-13T14:32:16;14.60;57.70
38606;DHT22;24365;48.446;8.850;2023-05-13T14:37:17;14.60;57.90
38606;DHT22;24365;48.446;8.850;2023-05-13T14:42:18;14.50;58.60
38606;DHT22;24365;48.446;8.850;2023-05-13T14:47:19;14.50;58.60
38606;DHT22;24365;48.446;8.850;2023-05-13T14:52:20;14.30;58.80
38606;DHT22;24365;48.446;8.850;2023-05-13T14:57:21;14.30;58.60
38606;DHT22;24365;48.446;8.850;2023-05-13T15:02:22;14.30;59.30
38606;DHT22;24365;48.446;8.850;2023-05-13T15:07:24;14.40;58.80
38606;DHT22;24365;48.446;8.850;2023-05-13T15:12:25;14.40;58.90
38606;DHT22;24365;48.446;8.850;2023-05-13T15:17:28;14.30;59.20
38606;DHT22;24365;48.446;8.850;2023-05-13T15:22:29;14.30;60.10
38606;DHT22;24365;48.446;8.850;2023-05-13T15:27:30;14.40;59.30
38606;DHT22;24365;48.446;8.850;2023-05-13T15:32:31;14.40;59.20
38606;DHT22;24365;48.446;8.850;2023-05-13T15:37:32;14.40;59.60
38606;DHT22;24365;48.446;8.850;2023-05-13T15:42:33;14.50;60.30
38606;DHT22;24365;48.446;8.850;2023-05-13T15:47:34;14.50;59.80
38606;DHT22;24365;48.446;8.850;2023-05-13T15:52:36;14.50;59.60
38606;DHT22;24365;48.446;8.850;2023-05-13T15:57:37;14.50;60.10
38606;DHT22;24365;48.446;8.850;2023-05-13T16:02:39;14.60;59.80
38606;DHT22;24365;48.446;8.850;2023-05-13T16:07:41;14.60;59.10
38606;DHT22;24365;48.446;8.850;2023-05-13T16:12:42;14.60;60.00
38606;DHT22;24365;48.446;8.850;2023-05-13T16:17:43;14.60;60.00
38606;DHT22;24365;48.446;8.850;2023-05-13T16:22:45;14.60;59.50
38606;DHT22;24365;48.446;8.850;2023-05-13T16:27:46;14.60;59.10
38606;DHT22;24365;48.446;8.850;2023-05-13T16:32:47;14.50;59.70
38606;DHT22;24365;48.446;8.850;2023-05-13T16:37:52;14.50;60.10
38606;DHT22;24365;48.446;8.850;2023-05-13T16:42:53;14.50;60.30
38606;DHT22;24365;48.446;8.850;2023-05-13T16:47:54;14.50;59.50
38606;DHT22;24365;48.446;8.850;2023-05-13T16:52:56;14.40;59.40
38606;DHT22;24365;48.446;8.850;2023-05-13T16:57:58;14.30;60.10
38606;DHT22;24365;48.446;8.850;2023-05-13T17:03:01;14.20;60.40
38606;DHT22;24365;48.446;8.850;2023-05-13T17:08:02;14.10;60.10
38606;DHT22;24365;48.446;8.850;2023-05-13T17:13:06;14.10;61.00
38606;DHT22;24365;48.446;8.850;2023-05-13T17:18:06;14.10;61.50
38606;DHT22;24365;48.446;8.850;2023-05-13T17:23:07;14.10;61.30
38606;DHT22;24365;48.446;8.850;2023-05-13T17:28:08;14.10;61.60
38606;DHT22;24365;48.446;8.850;2023-05-13T17:33:09;14.00;62.70
38606;DHT22;24365;48.446;8.850;2023-05-13T17:38:10;13.90;63.70
38606;DHT22;24365;48.446;8.850;2023-05-13T17:43:11;13.90;65.50
38606;DHT22;24365;48.446;8.850;2023-05-13T17:48:12;13.90;64.50
38606;DHT22;24365;48.446;8.850;2023-05-13T17:53:14;13.90;64.80
38606;DHT22;24365;48.446;8.850;2023-05-13T17:58:15;13.80;64.70
38606;DHT22;24365;48.446;8.850;2023-05-13T18:03:16;13.70;67.00
38606;DHT22;24365;48.446;8.850;2023-05-13T18:08:17;13.60;66.80
38606;DHT22;24365;48.446;8.850;2023-05-13T18:13:19;13.60;67.90
38606;DHT22;24365;48.446;8.850;2023-05-13T18:18:20;13.60;68.20
38606;DHT22;24365;48.446;8.850;2023-05-13T18:23:21;13.60;68.80
38606;DHT22;24365;48.446;8.850;2023-05-13T18:28:22;13.60;69.20
38606;DHT22;24365;48.446;8.850;2023-05-13T18:33:23;13.50;70.00
38606;DHT22;24365;48.446;8.850;2023-05-13T18:38:24;13.40;69.40
38606;DHT22;24365;48.446;8.850;2023-05-13T18:43:25;13.20;70.90
38606;DHT22;24365;48.446;8.850;2023-05-13T18:48:26;13.30;71.20
38606;DHT22;24365;48.446;8.850;2023-05-13T18:53:28;13.30;71.50
38606;DHT22;24365;48.446;8.850;2023-05-13T18:58:29;13.10;71.50
38606;DHT22;24365;48.446;8.850;2023-05-13T19:03:30;13.10;72.50
38606;DHT22;24365;48.446;8.850;2023-05-13T19:08:32;13.10;72.80
38606;DHT22;24365;48.446;8.850;2023-05-13T19:13:33;13.10;72.80
38606;DHT22;24365;48.446;8.850;2023-05-13T19:18:34;13.10;73.00
38606;DHT22;24365;48.446;8.850;2023-05-13T19:23:36;13.10;72.90
38606;DHT22;24365;48.446;8.850;2023-05-13T19:28:37;13.10;73.10
38606;DHT22;24365;48.446;8.850;2023-05-13T19:33:38;13.10;73.00
38606;DHT22;24365;48.446;8.850;2023-05-13T19:38:39;13.10;72.80
38606;DHT22;24365;48.446;8.850;2023-05-13T19:43:41;13.00;72.80
38606;DHT22;24365;48.446;8.850;2023-05-13T19:48:42;12.90;72.50
38606;DHT22;24365;48.446;8.850;2023-05-13T19:53:44;12.90;72.90
38606;DHT22;24365;48.446;8.850;2023-05-13T19:58:45;12.90;73.30
38606;DHT22;24365;48.446;8.850;2023-05-13T20:03:46;12.80;73.00
38606;DHT22;24365;48.446;8.850;2023-05-13T20:08:47;12.80;73.00
38606;DHT22;24365;48.446;8.850;2023-05-13T20:13:48;12.70;73.70
38606;DHT22;24365;48.446;8.850;2023-05-13T20:18:48;12.70;73.90
38606;DHT22;24365;48.446;8.850;2023-05-13T20:23:50;12.60;73.70
38606;DHT22;24365;48.446;8.850;2023-05-13T20:28:51;12.50;73.50
38606;DHT22;24365;48.446;8.850;2023-05-13T20:33:52;12.50;73.50
38606;DHT22;24365;48.446;8.850;2023-05-13T20:38:55;12.50;74.00
38606;DHT22;24365;48.446;8.850;2023-05-13T20:43:56;12.50;74.10
38606;DHT22;24365;48.446;8.850;2023-05-13T20:48:57;12.50;74.30
38606;DHT22;24365;48.446;8.850;2023-05-13T20:53:58;12.40;74.30
38606;DHT22;24365;48.446;8.850;2023-05-13T20:58:59;12.40;74.70
38606;DHT22;24365;48.446;8.850;2023-05-13T21:04:02;12.30;74.60
38606;DHT22;24365;48.446;8.850;2023-05-13T21:09:03;12.20;74.90
38606;DHT22;24365;48.446;8.850;2023-05-13T21:14:04;12.10;75.30
38606;DHT22;24365;48.446;8.850;2023-05-13T21:19:05;12.00;74.90
38606;DHT22;24365;48.446;8.850;2023-05-13T21:24:07;12.00;74.40
38606;DHT22;24365;48.446;8.850;2023-05-13T21:29:08;12.00;74.10
38606;DHT22;24365;48.446;8.850;2023-05-13T21:34:09;11.90;74.70
38606;DHT22;24365;48.446;8.850;2023-05-13T21:39:10;11.90;75.00
38606;DHT22;24365;48.446;8.850;2023-05-13T21:44:11;11.80;75.20
38606;DHT22;24365;48.446;8.850;2023-05-13T21:49:12;11.80;75.30
38606;DHT22;24365;48.446;8.850;2023-05-13T21:54:13;11.70;75.30
38606;DHT22;24365;48.446;8.850;2023-05-13T21:59:14;11.70;76.40
38606;DHT22;24365;48.446;8.850;2023-05-13T22:04:15;11.70;76.70
38606;DHT22;24365;48.446;8.850;2023-05-13T22:09:16;11.70;76.20
38606;DHT22;24365;48.446;8.850;2023-05-13T22:14:17;11.60;76.10
38606;DHT22;24365;48.446;8.850;2023-05-13T22:19:18;11.60;76.80
38606;DHT22;24365;48.446;8.850;2023-05-13T22:24:19;11.60;76.90
38606;DHT22;24365;48.446;8.850;2023-05-13T22:29:20;11.50;77.00
38606;DHT22;24365;48.446;8.850;2023-05-13T22:34:22;11.50;77.60
38606;DHT22;24365;48.446;8.850;2023-05-13T22:39:25;11.50;77.30
38606;DHT22;24365;48.446;8.850;2023-05-13T22:44:26;11.50;77.40
38606;DHT22;24365;48.446;8.850;2023-05-13T22:49:28;11.50;77.70
38606;DHT22;24365;48.446;8.850;2023-05-13T22:54:29;11.50;77.80
38606;DHT22;24365;48.446;8.850;2023-05-13T22:59:30;11.40;77.60
38606;DHT22;24365;48.446;8.850;2023-05-13T23:04:32;11.40;77.80
38606;DHT22;24365;48.446;8.850;2023-05-13T23:09:33;11.30;78.50
38606;DHT22;24365;48.446;8.850;2023-05-13T23:14:34;11.40;78.40
38606;DHT22;24365;48.446;8.850;2023-05-13T23:19:35;11.30;78.50
38606;DHT22;24365;48.446;8.850;2023-05-13T23:24:37;11.30;78.80
38606;DHT22;24365;48.446;8.850;2023-05-13T23:29:38;11.40;78.50
38606;DHT22;24365;48.446;8.850;2023-05-13T23:34:39;11.30;79.00
38606;DHT22;24365;48.446;8.850;2023-05-13T23:39:41;11.20;79.50
38606;DHT22;24365;48.446;8.850;2023-05-13T23:44:42;11.20;79.70
38606;DHT22;24365;48.446;8.850;2023-05-13T23:49:43;11.20;79.40
38606;DHT22;24365;48.446;8.850;2023-05-13T23:54:45;11.20;79.40
38606;DHT22;24365;48.446;8.850;2023-05-13T23:59:46;11.10;79.80
